sensor_id;sensor_type;location;lat;lon;timestamp;pressure;altitude;pressure_sealevel;temperature
53667;BMP280;39568;51.026;5.468;2023-03-01T00:01:25;102079.03;;;-2.18
53667;BMP280;39568;51.026;5.468;2023-03-01T00:03:54;102076.84;;;-2.13
53667;BMP280;39568;51.026;5.468;2023-03-01T00:06:24;102069.34;;;-2.18
53667;BMP280;39568;51.026;5.468;2023-03-01T00:08:51;102070.16;;;-2.10
53667;BMP280;39568;51.026;5.468;2023-03-01T00:11:19;102071.72;;;-2.06
53667;BMP280;39568;51.026;5.468;2023-03-01T00:13:48;102073.81;;;-2.18
53667;BMP280;39568;51.026;5.468;2023-03-01T00:16:18;102074.88;;;-1.86
53667;BMP280;39568;51.026;5.468;2023-03-01T00:18:45;102075.22;;;-1.88
53667;BMP280;39568;51.026;5.468;2023-03-01T00:21:13;102076.13;;;-2.10
53667;BMP280;39568;51.026;5.468;2023-03-01T00:23:40;102085.56;;;-2.32
53667;BMP280;39568;51.026;5.468;2023-03-01T00:26:08;102088.38;;;-2.47
53667;BMP280;39568;51.026;5.468;2023-03-01T00:28:36;102092.00;;;-2.55
53667;BMP280;39568;51.026;5.468;2023-03-01T00:31:04;102093.44;;;-2.58
53667;BMP280;39568;51.026;5.468;2023-03-01T00:33:31;102085.56;;;-2.61
53667;BMP280;39568;51.026;5.468;2023-03-01T00:35:58;102088.59;;;-2.59
53667;BMP280;39568;51.026;5.468;2023-03-01T00:38:26;102090.38;;;-2.63
53667;BMP280;39568;51.026;5.468;2023-03-01T00:40:53;102091.75;;;-2.69
53667;BMP280;39568;51.026;5.468;2023-03-01T00:43:20;102094.38;;;-2.69
53667;BMP280;39568;51.026;5.468;2023-03-01T00:45:46;102084.66;;;-2.72
53667;BMP280;39568;51.026;5.468;2023-03-01T00:48:13;102091.31;;;-2.75
53667;BMP280;39568;51.026;5.468;2023-03-01T00:50:40;102084.19;;;-2.78
53667;BMP280;39568;51.026;5.468;2023-03-01T00:53:06;102076.75;;;-2.80
53667;BMP280;39568;51.026;5.468;2023-03-01T00:55:35;102087.88;;;-2.83
53667;BMP280;39568;51.026;5.468;2023-03-01T00:58:02;102075.59;;;-2.82
53667;BMP280;39568;51.026;5.468;2023-03-01T01:00:29;102082.75;;;-2.75
53667;BMP280;39568;51.026;5.468;2023-03-01T01:02:56;102073.06;;;-2.79
53667;BMP280;39568;51.026;5.468;2023-03-01T01:05:22;102080.53;;;-2.73
53667;BMP280;39568;51.026;5.468;2023-03-01T01:07:49;102082.50;;;-2.67
53667;BMP280;39568;51.026;5.468;2023-03-01T01:10:16;102073.47;;;-2.73
53667;BMP280;39568;51.026;5.468;2023-03-01T01:12:45;102065.47;;;-2.61
53667;BMP280;39568;51.026;5.468;2023-03-01T01:15:12;102072.41;;;-2.68
53667;BMP280;39568;51.026;5.468;2023-03-01T01:17:42;102069.72;;;-2.75
53667;BMP280;39568;51.026;5.468;2023-03-01T01:20:10;102076.75;;;-2.80
53667;BMP280;39568;51.026;5.468;2023-03-01T01:22:37;102062.19;;;-2.84
53667;BMP280;39568;51.026;5.468;2023-03-01T01:25:04;102065.84;;;-2.89
53667;BMP280;39568;51.026;5.468;2023-03-01T01:27:31;102061.22;;;-2.99
53667;BMP280;39568;51.026;5.468;2023-03-01T01:29:59;102055.50;;;-3.08
53667;BMP280;39568;51.026;5.468;2023-03-01T01:32:26;102049.03;;;-3.17
53667;BMP280;39568;51.026;5.468;2023-03-01T01:34:52;102048.22;;;-3.22
53667;BMP280;39568;51.026;5.468;2023-03-01T01:37:19;102041.81;;;-3.28
53667;BMP280;39568;51.026;5.468;2023-03-01T01:39:47;102039.53;;;-3.29
53667;BMP280;39568;51.026;5.468;2023-03-01T01:42:15;102037.31;;;-3.31
53667;BMP280;39568;51.026;5.468;2023-03-01T01:44:44;102033.59;;;-3.30
53667;BMP280;39568;51.026;5.468;2023-03-01T01:47:17;102025.66;;;-3.37
53667;BMP280;39568;51.026;5.468;2023-03-01T01:49:48;102022.69;;;-3.39
53667;BMP280;39568;51.026;5.468;2023-03-01T01:52:18;102015.53;;;-3.45
53667;BMP280;39568;51.026;5.468;2023-03-01T01:54:50;102012.44;;;-3.51
53667;BMP280;39568;51.026;5.468;2023-03-01T01:57:20;102010.81;;;-3.59
53667;BMP280;39568;51.026;5.468;2023-03-01T01:59:51;102014.03;;;-3.69
53667;BMP280;39568;51.026;5.468;2023-03-01T02:02:20;102000.81;;;-3.80
53667;BMP280;39568;51.026;5.468;2023-03-01T02:04:48;102001.09;;;-3.85
53667;BMP280;39568;51.026;5.468;2023-03-01T02:07:18;101999.81;;;-3.94
53667;BMP280;39568;51.026;5.468;2023-03-01T02:09:47;102000.13;;;-3.96
53667;BMP280;39568;51.026;5.468;2023-03-01T02:12:15;102004.13;;;-4.02
53667;BMP280;39568;51.026;5.468;2023-03-01T02:14:43;101992.22;;;-4.03
53667;BMP280;39568;51.026;5.468;2023-03-01T02:17:11;101990.72;;;-4.04
53667;BMP280;39568;51.026;5.468;2023-03-01T02:19:49;101990.66;;;-4.07
53667;BMP280;39568;51.026;5.468;2023-03-01T02:22:22;101982.03;;;-4.12
53667;BMP280;39568;51.026;5.468;2023-03-01T02:24:59;101975.56;;;-4.21
53667;BMP280;39568;51.026;5.468;2023-03-01T02:27:35;101979.94;;;-4.25
53667;BMP280;39568;51.026;5.468;2023-03-01T02:30:06;101975.06;;;-4.27
53667;BMP280;39568;51.026;5.468;2023-03-01T02:32:33;101988.88;;;-4.23
53667;BMP280;39568;51.026;5.468;2023-03-01T02:34:59;101975.13;;;-4.23
53667;BMP280;39568;51.026;5.468;2023-03-01T02:37:26;101974.84;;;-4.18
53667;BMP280;39568;51.026;5.468;2023-03-01T02:39:58;101965.44;;;-4.26
53667;BMP280;39568;51.026;5.468;2023-03-01T02:42:30;101971.00;;;-4.28
53667;BMP280;39568;51.026;5.468;2023-03-01T02:44:59;101967.69;;;-4.25
53667;BMP280;39568;51.026;5.468;2023-03-01T02:47:27;101963.94;;;-4.27
53667;BMP280;39568;51.026;5.468;2023-03-01T02:49:54;101969.88;;;-4.27
53667;BMP280;39568;51.026;5.468;2023-03-01T02:52:30;101960.72;;;-4.21
53667;BMP280;39568;51.026;5.468;2023-03-01T02:55:02;101965.97;;;-4.17
53667;BMP280;39568;51.026;5.468;2023-03-01T02:57:31;101965.22;;;-4.18
53667;BMP280;39568;51.026;5.468;2023-03-01T03:00:01;101967.91;;;-4.14
53667;BMP280;39568;51.026;5.468;2023-03-01T03:02:34;101959.25;;;-4.18
53667;BMP280;39568;51.026;5.468;2023-03-01T03:05:07;101970.34;;;-4.21
53667;BMP280;39568;51.026;5.468;2023-03-01T03:07:35;101970.75;;;-4.19
53667;BMP280;39568;51.026;5.468;2023-03-01T03:10:04;101976.38;;;-4.17
53667;BMP280;39568;51.026;5.468;2023-03-01T03:12:31;101977.13;;;-4.17
53667;BMP280;39568;51.026;5.468;2023-03-01T03:14:58;101984.09;;;-4.21
53667;BMP280;39568;51.026;5.468;2023-03-01T03:17:25;101980.81;;;-4.18
53667;BMP280;39568;51.026;5.468;2023-03-01T03:19:53;101982.41;;;-4.13
53667;BMP280;39568;51.026;5.468;2023-03-01T03:22:20;101980.19;;;-4.11
53667;BMP280;39568;51.026;5.468;2023-03-01T03:24:46;101977.38;;;-4.02
53667;BMP280;39568;51.026;5.468;2023-03-01T03:27:13;101971.84;;;-4.01
53667;BMP280;39568;51.026;5.468;2023-03-01T03:29:40;101981.28;;;-3.93
53667;BMP280;39568;51.026;5.468;2023-03-01T03:32:06;101976.09;;;-3.93
53667;BMP280;39568;51.026;5.468;2023-03-01T03:34:33;101974.13;;;-3.96
53667;BMP280;39568;51.026;5.468;2023-03-01T03:37:01;101975.81;;;-4.07
53667;BMP280;39568;51.026;5.468;2023-03-01T03:39:28;101972.00;;;-4.13
53667;BMP280;39568;51.026;5.468;2023-03-01T03:42:00;101970.25;;;-4.28
53667;BMP280;39568;51.026;5.468;2023-03-01T03:44:26;101967.66;;;-4.28
53667;BMP280;39568;51.026;5.468;2023-03-01T03:46:53;101970.38;;;-4.40
53667;BMP280;39568;51.026;5.468;2023-03-01T03:49:20;101962.97;;;-4.58
53667;BMP280;39568;51.026;5.468;2023-03-01T03:51:46;101964.69;;;-4.46
53667;BMP280;39568;51.026;5.468;2023-03-01T03:54:14;101964.47;;;-4.57
53667;BMP280;39568;51.026;5.468;2023-03-01T03:56:42;101963.59;;;-4.64
53667;BMP280;39568;51.026;5.468;2023-03-01T03:59:09;101961.25;;;-4.69
53667;BMP280;39568;51.026;5.468;2023-03-01T04:01:36;101965.00;;;-4.67
53667;BMP280;39568;51.026;5.468;2023-03-01T04:04:03;101958.72;;;-4.66
53667;BMP280;39568;51.026;5.468;2023-03-01T04:06:33;101951.31;;;-4.67
53667;BMP280;39568;51.026;5.468;2023-03-01T04:08:59;101957.06;;;-4.74
53667;BMP280;39568;51.026;5.468;2023-03-01T04:11:29;101946.44;;;-4.69
53667;BMP280;39568;51.026;5.468;2023-03-01T04:13:57;101953.72;;;-4.74
53667;BMP280;39568;51.026;5.468;2023-03-01T04:16:25;101949.41;;;-4.86
53667;BMP280;39568;51.026;5.468;2023-03-01T04:18:52;101950.34;;;-4.94
53667;BMP280;39568;51.026;5.468;2023-03-01T04:21:20;101950.34;;;-4.94
53667;BMP280;39568;51.026;5.468;2023-03-01T04:23:47;101941.47;;;-4.93
53667;BMP280;39568;51.026;5.468;2023-03-01T04:26:13;101948.63;;;-5.06
53667;BMP280;39568;51.026;5.468;2023-03-01T04:28:42;101940.75;;;-5.09
53667;BMP280;39568;51.026;5.468;2023-03-01T04:31:12;101938.75;;;-5.16
53667;BMP280;39568;51.026;5.468;2023-03-01T04:33:41;101933.16;;;-5.02
53667;BMP280;39568;51.026;5.468;2023-03-01T04:36:09;101932.56;;;-5.11
53667;BMP280;39568;51.026;5.468;2023-03-01T04:38:36;101923.06;;;-4.88
53667;BMP280;39568;51.026;5.468;2023-03-01T04:41:04;101918.69;;;-4.84
53667;BMP280;39568;51.026;5.468;2023-03-01T04:43:31;101907.22;;;-4.83
53667;BMP280;39568;51.026;5.468;2023-03-01T04:46:05;101912.41;;;-4.83
53667;BMP280;39568;51.026;5.468;2023-03-01T04:48:34;101917.72;;;-4.76
53667;BMP280;39568;51.026;5.468;2023-03-01T04:51:01;101912.03;;;-4.81
53667;BMP280;39568;51.026;5.468;2023-03-01T04:53:29;101902.47;;;-4.97
53667;BMP280;39568;51.026;5.468;2023-03-01T04:55:56;101904.59;;;-5.02
53667;BMP280;39568;51.026;5.468;2023-03-01T04:58:23;101903.09;;;-5.03
53667;BMP280;39568;51.026;5.468;2023-03-01T05:00:50;101896.94;;;-4.95
53667;BMP280;39568;51.026;5.468;2023-03-01T05:03:19;101892.00;;;-5.00
53667;BMP280;39568;51.026;5.468;2023-03-01T05:05:50;101897.75;;;-4.91
53667;BMP280;39568;51.026;5.468;2023-03-01T05:08:18;101898.72;;;-4.80
53667;BMP280;39568;51.026;5.468;2023-03-01T05:10:47;101896.25;;;-4.92
53667;BMP280;39568;51.026;5.468;2023-03-01T05:13:14;101891.75;;;-4.95
53667;BMP280;39568;51.026;5.468;2023-03-01T05:15:46;101902.06;;;-4.99
53667;BMP280;39568;51.026;5.468;2023-03-01T05:18:13;101902.66;;;-5.05
53667;BMP280;39568;51.026;5.468;2023-03-01T05:20:41;101913.53;;;-5.00
53667;BMP280;39568;51.026;5.468;2023-03-01T05:23:08;101906.06;;;-5.01
53667;BMP280;39568;51.026;5.468;2023-03-01T05:25:35;101900.31;;;-5.10
53667;BMP280;39568;51.026;5.468;2023-03-01T05:28:06;101918.13;;;-5.09
53667;BMP280;39568;51.026;5.468;2023-03-01T05:30:35;101911.38;;;-5.13
53667;BMP280;39568;51.026;5.468;2023-03-01T05:33:02;101906.13;;;-5.17
53667;BMP280;39568;51.026;5.468;2023-03-01T05:35:29;101898.63;;;-5.22
53667;BMP280;39568;51.026;5.468;2023-03-01T05:37:59;101896.84;;;-5.18
53667;BMP280;39568;51.026;5.468;2023-03-01T05:40:25;101895.28;;;-5.22
53667;BMP280;39568;51.026;5.468;2023-03-01T05:42:54;101894.91;;;-5.21
53667;BMP280;39568;51.026;5.468;2023-03-01T05:45:22;101893.00;;;-5.24
53667;BMP280;39568;51.026;5.468;2023-03-01T05:47:50;101887.97;;;-5.32
53667;BMP280;39568;51.026;5.468;2023-03-01T05:50:18;101893.75;;;-5.23
53667;BMP280;39568;51.026;5.468;2023-03-01T05:52:47;101888.13;;;-5.25
53667;BMP280;39568;51.026;5.468;2023-03-01T05:55:16;101890.59;;;-5.13
53667;BMP280;39568;51.026;5.468;2023-03-01T05:57:43;101889.19;;;-5.11
53667;BMP280;39568;51.026;5.468;2023-03-01T06:00:11;101886.47;;;-5.18
53667;BMP280;39568;51.026;5.468;2023-03-01T06:02:38;101881.88;;;-5.24
53667;BMP280;39568;51.026;5.468;2023-03-01T06:05:06;101889.06;;;-5.33
53667;BMP280;39568;51.026;5.468;2023-03-01T06:07:34;101877.38;;;-5.43
53667;BMP280;39568;51.026;5.468;2023-03-01T06:10:01;101892.00;;;-5.35
53667;BMP280;39568;51.026;5.468;2023-03-01T06:12:31;101886.59;;;-5.46
53667;BMP280;39568;51.026;5.468;2023-03-01T06:14:58;101882.41;;;-5.50
53667;BMP280;39568;51.026;5.468;2023-03-01T06:17:25;101883.81;;;-5.53
53667;BMP280;39568;51.026;5.468;2023-03-01T06:19:52;101871.19;;;-5.38
53667;BMP280;39568;51.026;5.468;2023-03-01T06:22:18;101868.81;;;-5.28
53667;BMP280;39568;51.026;5.468;2023-03-01T06:24:45;101867.28;;;-5.29
53667;BMP280;39568;51.026;5.468;2023-03-01T06:27:12;101866.81;;;-5.34
53667;BMP280;39568;51.026;5.468;2023-03-01T06:29:40;101869.75;;;-5.36
53667;BMP280;39568;51.026;5.468;2023-03-01T06:32:06;101865.41;;;-5.48
53667;BMP280;39568;51.026;5.468;2023-03-01T06:34:34;101866.00;;;-5.38
53667;BMP280;39568;51.026;5.468;2023-03-01T06:37:00;101863.22;;;-5.30
53667;BMP280;39568;51.026;5.468;2023-03-01T06:39:30;101875.69;;;-5.35
53667;BMP280;39568;51.026;5.468;2023-03-01T06:41:57;101879.13;;;-5.31
53667;BMP280;39568;51.026;5.468;2023-03-01T06:44:24;101890.31;;;-5.27
53667;BMP280;39568;51.026;5.468;2023-03-01T06:46:52;101891.16;;;-5.23
53667;BMP280;39568;51.026;5.468;2023-03-01T06:49:18;101890.09;;;-5.03
53667;BMP280;39568;51.026;5.468;2023-03-01T06:51:46;101894.06;;;-4.90
53667;BMP280;39568;51.026;5.468;2023-03-01T06:54:13;101890.50;;;-4.82
53667;BMP280;39568;51.026;5.468;2023-03-01T06:56:40;101893.53;;;-4.61
53667;BMP280;39568;51.026;5.468;2023-03-01T06:59:07;101890.81;;;-4.48
53667;BMP280;39568;51.026;5.468;2023-03-01T07:01:33;101888.50;;;-4.31
53667;BMP280;39568;51.026;5.468;2023-03-01T07:04:02;101895.19;;;-4.11
53667;BMP280;39568;51.026;5.468;2023-03-01T07:06:28;101896.13;;;-3.96
53667;BMP280;39568;51.026;5.468;2023-03-01T07:08:55;101896.69;;;-3.87
53667;BMP280;39568;51.026;5.468;2023-03-01T07:11:22;101885.44;;;-3.68
53667;BMP280;39568;51.026;5.468;2023-03-01T07:13:48;101897.81;;;-3.61
53667;BMP280;39568;51.026;5.468;2023-03-01T07:16:15;101895.34;;;-3.51
53667;BMP280;39568;51.026;5.468;2023-03-01T07:18:42;101893.78;;;-3.29
53667;BMP280;39568;51.026;5.468;2023-03-01T07:21:12;101899.16;;;-3.18
53667;BMP280;39568;51.026;5.468;2023-03-01T07:23:40;101894.78;;;-3.11
53667;BMP280;39568;51.026;5.468;2023-03-01T07:26:07;101889.75;;;-2.93
53667;BMP280;39568;51.026;5.468;2023-03-01T07:28:34;101894.34;;;-2.87
53667;BMP280;39568;51.026;5.468;2023-03-01T07:31:04;101893.75;;;-2.69
53667;BMP280;39568;51.026;5.468;2023-03-01T07:33:31;101887.22;;;-2.56
53667;BMP280;39568;51.026;5.468;2023-03-01T07:35:58;101888.06;;;-2.45
53667;BMP280;39568;51.026;5.468;2023-03-01T07:38:28;101897.94;;;-2.28
53667;BMP280;39568;51.026;5.468;2023-03-01T07:40:58;101892.75;;;-2.21
53667;BMP280;39568;51.026;5.468;2023-03-01T07:43:25;101895.47;;;-2.07
53667;BMP280;39568;51.026;5.468;2023-03-01T07:45:52;101901.91;;;-1.94
53667;BMP280;39568;51.026;5.468;2023-03-01T07:48:18;101904.25;;;-1.81
53667;BMP280;39568;51.026;5.468;2023-03-01T07:50:45;101899.09;;;-1.67
53667;BMP280;39568;51.026;5.468;2023-03-01T07:53:12;101904.34;;;-1.60
53667;BMP280;39568;51.026;5.468;2023-03-01T07:55:40;101897.75;;;-1.40
53667;BMP280;39568;51.026;5.468;2023-03-01T07:58:07;101901.53;;;-1.34
53667;BMP280;39568;51.026;5.468;2023-03-01T08:00:34;101902.72;;;-1.21
53667;BMP280;39568;51.026;5.468;2023-03-01T08:03:01;101893.41;;;-1.15
53667;BMP280;39568;51.026;5.468;2023-03-01T08:05:28;101889.34;;;-1.05
53667;BMP280;39568;51.026;5.468;2023-03-01T08:07:55;101887.88;;;-0.88
53667;BMP280;39568;51.026;5.468;2023-03-01T08:10:22;101899.50;;;-0.79
53667;BMP280;39568;51.026;5.468;2023-03-01T08:12:52;101889.06;;;-0.68
53667;BMP280;39568;51.026;5.468;2023-03-01T08:15:19;101895.44;;;-0.48
53667;BMP280;39568;51.026;5.468;2023-03-01T08:17:48;101892.81;;;-0.34
53667;BMP280;39568;51.026;5.468;2023-03-01T08:20:15;101901.06;;;-0.11
53667;BMP280;39568;51.026;5.468;2023-03-01T08:22:42;101895.78;;;0.21
53667;BMP280;39568;51.026;5.468;2023-03-01T08:25:09;101893.00;;;0.64
53667;BMP280;39568;51.026;5.468;2023-03-01T08:27:36;101889.44;;;1.09
53667;BMP280;39568;51.026;5.468;2023-03-01T08:30:05;101898.34;;;1.70
53667;BMP280;39568;51.026;5.468;2023-03-01T08:32:35;101901.00;;;2.41
53667;BMP280;39568;51.026;5.468;2023-03-01T08:35:02;101891.19;;;3.03
53667;BMP280;39568;51.026;5.468;2023-03-01T08:37:29;101882.66;;;3.88
53667;BMP280;39568;51.026;5.468;2023-03-01T08:39:58;101870.59;;;4.78
53667;BMP280;39568;51.026;5.468;2023-03-01T08:42:25;101880.19;;;5.04
53667;BMP280;39568;51.026;5.468;2023-03-01T08:44:51;101885.16;;;5.89
53667;BMP280;39568;51.026;5.468;2023-03-01T08:47:20;101876.38;;;6.46
53667;BMP280;39568;51.026;5.468;2023-03-01T08:49:46;101886.38;;;6.89
53667;BMP280;39568;51.026;5.468;2023-03-01T08:52:13;101887.66;;;8.05
53667;BMP280;39568;51.026;5.468;2023-03-01T08:54:40;101885.19;;;8.20
53667;BMP280;39568;51.026;5.468;2023-03-01T08:57:06;101883.03;;;7.97
53667;BMP280;39568;51.026;5.468;2023-03-01T08:59:34;101883.75;;;9.13
53667;BMP280;39568;51.026;5.468;2023-03-01T09:02:04;101880.69;;;9.75
53667;BMP280;39568;51.026;5.468;2023-03-01T09:04:32;101878.63;;;10.11
53667;BMP280;39568;51.026;5.468;2023-03-01T09:06:59;101873.78;;;10.10
53667;BMP280;39568;51.026;5.468;2023-03-01T09:09:26;101875.00;;;9.91
53667;BMP280;39568;51.026;5.468;2023-03-01T09:11:53;101872.09;;;10.84
53667;BMP280;39568;51.026;5.468;2023-03-01T09:14:19;101882.06;;;11.27
53667;BMP280;39568;51.026;5.468;2023-03-01T09:16:46;101867.97;;;10.97
53667;BMP280;39568;51.026;5.468;2023-03-01T09:19:13;101871.34;;;10.68
53667;BMP280;39568;51.026;5.468;2023-03-01T09:21:42;101875.47;;;11.08
53667;BMP280;39568;51.026;5.468;2023-03-01T09:24:18;101873.19;;;11.79
53667;BMP280;39568;51.026;5.468;2023-03-01T09:26:46;101878.41;;;12.69
53667;BMP280;39568;51.026;5.468;2023-03-01T09:29:13;101868.59;;;13.06
53667;BMP280;39568;51.026;5.468;2023-03-01T09:31:40;101866.44;;;12.59
53667;BMP280;39568;51.026;5.468;2023-03-01T09:34:07;101868.38;;;12.38
53667;BMP280;39568;51.026;5.468;2023-03-01T09:36:35;101863.00;;;13.41
53667;BMP280;39568;51.026;5.468;2023-03-01T09:39:04;101866.53;;;14.06
53667;BMP280;39568;51.026;5.468;2023-03-01T09:41:43;101855.81;;;14.06
53667;BMP280;39568;51.026;5.468;2023-03-01T09:44:18;101861.41;;;14.08
53667;BMP280;39568;51.026;5.468;2023-03-01T09:46:47;101858.63;;;13.86
53667;BMP280;39568;51.026;5.468;2023-03-01T09:49:16;101861.59;;;14.63
53667;BMP280;39568;51.026;5.468;2023-03-01T09:51:53;101856.00;;;14.84
53667;BMP280;39568;51.026;5.468;2023-03-01T09:54:22;101855.22;;;15.38
53667;BMP280;39568;51.026;5.468;2023-03-01T09:57:04;101857.75;;;15.88
53667;BMP280;39568;51.026;5.468;2023-03-01T09:59:40;101856.25;;;16.39
53667;BMP280;39568;51.026;5.468;2023-03-01T10:02:21;101853.91;;;16.60
53667;BMP280;39568;51.026;5.468;2023-03-01T10:04:51;101848.16;;;16.74
53667;BMP280;39568;51.026;5.468;2023-03-01T10:07:28;101850.06;;;15.57
53667;BMP280;39568;51.026;5.468;2023-03-01T10:09:59;101838.44;;;15.16
53667;BMP280;39568;51.026;5.468;2023-03-01T10:12:33;101838.16;;;14.36
53667;BMP280;39568;51.026;5.468;2023-03-01T10:15:05;101841.50;;;13.67
53667;BMP280;39568;51.026;5.468;2023-03-01T10:17:37;101840.06;;;14.25
53667;BMP280;39568;51.026;5.468;2023-03-01T10:20:19;101832.38;;;14.93
53667;BMP280;39568;51.026;5.468;2023-03-01T10:22:46;101829.09;;;15.61
53667;BMP280;39568;51.026;5.468;2023-03-01T10:25:23;101832.19;;;16.23
53667;BMP280;39568;51.026;5.468;2023-03-01T10:27:53;101819.81;;;16.44
53667;BMP280;39568;51.026;5.468;2023-03-01T10:30:22;101814.75;;;16.94
53667;BMP280;39568;51.026;5.468;2023-03-01T10:32:54;101804.19;;;17.44
53667;BMP280;39568;51.026;5.468;2023-03-01T10:35:24;101808.50;;;14.79
53667;BMP280;39568;51.026;5.468;2023-03-01T10:37:58;101806.25;;;15.16
53667;BMP280;39568;51.026;5.468;2023-03-01T10:40:30;101802.56;;;16.34
53667;BMP280;39568;51.026;5.468;2023-03-01T10:42:57;101800.97;;;17.03
53667;BMP280;39568;51.026;5.468;2023-03-01T10:45:32;101793.38;;;18.00
53667;BMP280;39568;51.026;5.468;2023-03-01T10:48:11;101792.06;;;18.07
53667;BMP280;39568;51.026;5.468;2023-03-01T10:50:39;101781.03;;;18.23
53667;BMP280;39568;51.026;5.468;2023-03-01T10:53:23;101786.53;;;18.31
53667;BMP280;39568;51.026;5.468;2023-03-01T10:56:01;101784.31;;;18.87
53667;BMP280;39568;51.026;5.468;2023-03-01T10:58:29;101782.03;;;18.91
53667;BMP280;39568;51.026;5.468;2023-03-01T11:00:58;101784.69;;;19.17
53667;BMP280;39568;51.026;5.468;2023-03-01T11:03:28;101790.63;;;19.03
53667;BMP280;39568;51.026;5.468;2023-03-01T11:05:58;101791.88;;;19.15
53667;BMP280;39568;51.026;5.468;2023-03-01T11:08:47;101788.31;;;19.87
53667;BMP280;39568;51.026;5.468;2023-03-01T11:11:21;101785.28;;;19.50
53667;BMP280;39568;51.026;5.468;2023-03-01T11:13:52;101790.25;;;20.00
53667;BMP280;39568;51.026;5.468;2023-03-01T11:16:22;101782.56;;;20.32
53667;BMP280;39568;51.026;5.468;2023-03-01T11:18:56;101782.78;;;18.79
53667;BMP280;39568;51.026;5.468;2023-03-01T11:21:24;101775.78;;;19.09
53667;BMP280;39568;51.026;5.468;2023-03-01T11:23:51;101773.25;;;19.92
53667;BMP280;39568;51.026;5.468;2023-03-01T11:26:20;101771.47;;;20.43
53667;BMP280;39568;51.026;5.468;2023-03-01T11:28:50;101776.00;;;20.20
53667;BMP280;39568;51.026;5.468;2023-03-01T11:31:21;101782.31;;;18.04
53667;BMP280;39568;51.026;5.468;2023-03-01T11:33:53;101783.84;;;19.90
53667;BMP280;39568;51.026;5.468;2023-03-01T11:36:28;101779.34;;;21.05
53667;BMP280;39568;51.026;5.468;2023-03-01T11:38:57;101771.34;;;21.58
53667;BMP280;39568;51.026;5.468;2023-03-01T11:41:31;101772.25;;;21.60
53667;BMP280;39568;51.026;5.468;2023-03-01T11:44:02;101763.78;;;21.64
53667;BMP280;39568;51.026;5.468;2023-03-01T11:46:43;101758.81;;;21.17
53667;BMP280;39568;51.026;5.468;2023-03-01T11:49:42;101759.69;;;20.33
53667;BMP280;39568;51.026;5.468;2023-03-01T11:52:22;101756.06;;;18.23
53667;BMP280;39568;51.026;5.468;2023-03-01T11:55:07;101750.28;;;18.84
53667;BMP280;39568;51.026;5.468;2023-03-01T11:57:52;101753.69;;;18.32
53667;BMP280;39568;51.026;5.468;2023-03-01T12:00:34;101752.44;;;17.89
53667;BMP280;39568;51.026;5.468;2023-03-01T12:03:30;101758.69;;;18.55
53667;BMP280;39568;51.026;5.468;2023-03-01T12:06:20;101760.97;;;19.50
53667;BMP280;39568;51.026;5.468;2023-03-01T12:08:57;101772.28;;;20.59
53667;BMP280;39568;51.026;5.468;2023-03-01T12:11:35;101761.75;;;16.89
53667;BMP280;39568;51.026;5.468;2023-03-01T12:14:31;101754.47;;;16.60
53667;BMP280;39568;51.026;5.468;2023-03-01T12:17:24;101747.84;;;19.33
53667;BMP280;39568;51.026;5.468;2023-03-01T12:20:14;101748.81;;;20.54
53667;BMP280;39568;51.026;5.468;2023-03-01T12:22:56;101735.94;;;18.11
53667;BMP280;39568;51.026;5.468;2023-03-01T12:25:31;101734.09;;;19.10
53667;BMP280;39568;51.026;5.468;2023-03-01T12:28:37;101715.78;;;16.68
53667;BMP280;39568;51.026;5.468;2023-03-01T12:34:05;101718.44;;;19.84
53667;BMP280;39568;51.026;5.468;2023-03-01T12:36:49;101717.97;;;19.72
53667;BMP280;39568;51.026;5.468;2023-03-01T12:39:36;101709.13;;;18.31
53667;BMP280;39568;51.026;5.468;2023-03-01T12:42:10;101707.88;;;21.00
53667;BMP280;39568;51.026;5.468;2023-03-01T12:44:50;101692.09;;;21.57
53667;BMP280;39568;51.026;5.468;2023-03-01T12:47:36;101690.56;;;22.02
53667;BMP280;39568;51.026;5.468;2023-03-01T12:50:12;101691.03;;;23.10
53667;BMP280;39568;51.026;5.468;2023-03-01T12:52:43;101689.13;;;22.16
53667;BMP280;39568;51.026;5.468;2023-03-01T12:55:22;101681.84;;;17.64
53667;BMP280;39568;51.026;5.468;2023-03-01T12:57:56;101675.31;;;17.41
53667;BMP280;39568;51.026;5.468;2023-03-01T13:00:28;101659.69;;;18.55
53667;BMP280;39568;51.026;5.468;2023-03-01T13:03:09;101662.91;;;20.75
53667;BMP280;39568;51.026;5.468;2023-03-01T13:05:45;101649.47;;;22.28
53667;BMP280;39568;51.026;5.468;2023-03-01T13:08:19;101650.13;;;23.25
53667;BMP280;39568;51.026;5.468;2023-03-01T13:10:49;101649.97;;;23.82
53667;BMP280;39568;51.026;5.468;2023-03-01T13:13:21;101651.88;;;23.89
53667;BMP280;39568;51.026;5.468;2023-03-01T13:15:48;101642.38;;;22.00
53667;BMP280;39568;51.026;5.468;2023-03-01T13:18:33;101648.03;;;23.16
53667;BMP280;39568;51.026;5.468;2023-03-01T13:21:02;101648.19;;;20.12
53667;BMP280;39568;51.026;5.468;2023-03-01T13:23:32;101647.63;;;17.27
53667;BMP280;39568;51.026;5.468;2023-03-01T13:26:11;101656.31;;;17.33
53667;BMP280;39568;51.026;5.468;2023-03-01T13:28:50;101659.28;;;19.73
53667;BMP280;39568;51.026;5.468;2023-03-01T13:34:56;101650.13;;;22.04
53667;BMP280;39568;51.026;5.468;2023-03-01T13:37:26;101642.84;;;18.88
53667;BMP280;39568;51.026;5.468;2023-03-01T13:39:56;101646.88;;;20.84
53667;BMP280;39568;51.026;5.468;2023-03-01T13:42:43;101641.94;;;22.19
53667;BMP280;39568;51.026;5.468;2023-03-01T13:45:33;101628.16;;;21.62
53667;BMP280;39568;51.026;5.468;2023-03-01T13:48:03;101611.91;;;21.62
53667;BMP280;39568;51.026;5.468;2023-03-01T13:50:38;101618.59;;;18.88
53667;BMP280;39568;51.026;5.468;2023-03-01T13:53:12;101614.19;;;18.52
53667;BMP280;39568;51.026;5.468;2023-03-01T13:55:40;101619.38;;;18.96
53667;BMP280;39568;51.026;5.468;2023-03-01T13:58:16;101604.13;;;19.89
53667;BMP280;39568;51.026;5.468;2023-03-01T14:00:45;101600.13;;;18.79
53667;BMP280;39568;51.026;5.468;2023-03-01T14:03:14;101598.03;;;19.96
53667;BMP280;39568;51.026;5.468;2023-03-01T14:05:56;101596.41;;;19.44
53667;BMP280;39568;51.026;5.468;2023-03-01T14:08:27;101590.94;;;18.95
53667;BMP280;39568;51.026;5.468;2023-03-01T14:11:13;101591.22;;;15.93
53667;BMP280;39568;51.026;5.468;2023-03-01T14:14:06;101595.06;;;16.52
53667;BMP280;39568;51.026;5.468;2023-03-01T14:16:42;101586.66;;;18.66
53667;BMP280;39568;51.026;5.468;2023-03-01T14:19:16;101581.72;;;20.52
53667;BMP280;39568;51.026;5.468;2023-03-01T14:21:46;101579.44;;;21.54